Time;durP1;ratioP1;P1;durP2;ratioP2;P2;SDS_P1;SDS_P2;PMS_P1;PMS_P2;Temp;Humidity;BMP_temperature;BMP_pressure;BME280_temperature;BME280_humidity;BME280_pressure;Samples;Min_cycle;Max_cycle;Signal;HPM_P1;HPM_P2
2023/11/29 00:00:35;;;;;;;;;71.25;55.75;;;;;8.30;72.89;100519.78;5098850;27;45818;-62
2023/11/29 00:03:01;;;;;;;;;68.75;56.00;;;;;8.30;72.63;100521.53;5099997;27;47884;-63
2023/11/29 00:05:26;;;;;;;;;64.25;51.25;;;;;8.19;72.39;100497.06;5102925;27;45408;-62
2023/11/29 00:07:51;;;;;;;;;72.25;55.75;;;;;8.29;72.61;100517.16;5103113;27;45549;-62
2023/11/29 00:10:17;;;;;;;;;70.00;54.00;;;;;8.15;72.57;100490.91;5102179;27;64586;-62
2023/11/29 00:12:42;;;;;;;;;62.50;52.00;;;;;8.12;72.72;100491.03;5102968;27;45225;-63
2023/11/29 00:15:10;;;;;;;;;69.75;53.75;;;;;8.14;72.84;100495.38;5102225;27;45424;-62
2023/11/29 00:17:36;;;;;;;;;60.50;49.50;;;;;8.21;72.77;100514.69;5092141;27;45556;-63
2023/11/29 00:20:01;;;;;;;;;69.75;52.00;;;;;8.24;72.76;100519.94;5099675;27;46017;-62
2023/11/29 00:22:26;;;;;;;;;67.00;53.50;;;;;8.16;72.73;100508.63;5102783;27;45511;-63
2023/11/29 00:24:52;;;;;;;;;67.00;53.00;;;;;8.22;72.39;100519.13;5100264;27;48586;-63
2023/11/29 00:27:17;;;;;;;;;59.25;48.50;;;;;8.15;72.86;100509.53;5092441;27;45410;-62
2023/11/29 00:29:44;;;;;;;;;54.75;46.50;;;;;8.23;72.74;100520.84;5098969;27;56413;-63
2023/11/29 00:32:09;;;;;;;;;55.50;47.25;;;;;8.14;72.78;100507.81;5102512;27;45774;-62
2023/11/29 00:34:34;;;;;;;;;60.50;49.00;;;;;8.10;72.86;100509.66;5096837;27;46719;-62
2023/11/29 00:37:01;;;;;;;;;59.75;46.00;;;;;8.03;72.95;100505.41;5092434;27;59375;-63
2023/11/29 00:39:26;;;;;;;;;58.25;46.50;;;;;8.00;73.23;100502.81;5102500;27;45300;-62
2023/11/29 00:41:52;;;;;;;;;56.00;46.00;;;;;7.91;73.14;100487.97;5072951;28;45623;-63
2023/11/29 00:44:18;;;;;;;;;55.75;47.25;;;;;7.97;73.17;100490.50;5099140;27;45315;-62
2023/11/29 00:46:43;;;;;;;;;62.75;49.25;;;;;7.96;72.82;100487.88;5102262;27;45434;-63
2023/11/29 00:49:08;;;;;;;;;56.75;48.00;;;;;8.03;73.15;100496.56;5102483;27;45503;-62
2023/11/29 00:51:34;;;;;;;;;55.50;45.75;;;;;8.04;72.82;100495.66;5102038;27;49401;-63
2023/11/29 00:53:59;;;;;;;;;52.50;41.00;;;;;8.00;73.44;100478.91;5092331;27;45481;-62
2023/11/29 00:56:24;;;;;;;;;53.75;43.75;;;;;7.94;72.55;100471.09;5092766;27;45489;-62
2023/11/29 00:58:50;;;;;;;;;47.25;41.00;;;;;7.93;72.69;100467.56;5102109;27;45537;-62
2023/11/29 01:01:16;;;;;;;;;52.75;43.00;;;;;7.99;73.03;100485.16;5100312;27;53387;-63
2023/11/29 01:03:41;;;;;;;;;48.00;41.50;;;;;7.93;73.11;100472.00;5101044;27;45555;-62
2023/11/29 01:06:07;;;;;;;;;50.50;42.50;;;;;7.94;73.14;100482.59;5091443;27;45485;-62
2023/11/29 01:08:32;;;;;;;;;46.75;41.25;;;;;7.84;73.06;100474.91;5088679;27;46135;-62
2023/11/29 01:10:57;;;;;;;;;47.67;39.00;;;;;7.87;72.76;100474.81;5101353;27;65387;-62
2023/11/29 01:13:23;;;;;;;;;54.25;42.50;;;;;7.91;73.35;100492.44;5101199;27;45586;-62
2023/11/29 01:15:48;;;;;;;;;46.50;39.50;;;;;7.93;73.44;100487.94;5101254;27;45454;-62
2023/11/29 01:18:17;;;;;;;;;45.75;40.50;;;;;7.89;73.40;100471.22;5087809;27;46077;-63
2023/11/29 01:20:43;;;;;;;;;46.00;40.50;;;;;7.91;73.49;100469.38;5101838;27;45445;-62
2023/11/29 01:23:08;;;;;;;;;53.25;43.00;;;;;7.80;73.14;100450.19;5101061;27;45473;-62
2023/11/29 01:25:34;;;;;;;;;30.50;30.50;;;;;7.76;73.53;100453.84;5100445;27;45519;-62
2023/11/29 01:28:00;;;;;;;;;46.25;40.50;;;;;7.86;73.53;100467.78;5101572;27;45368;-62
2023/11/29 01:30:26;;;;;;;;;45.25;39.75;;;;;7.87;73.31;100467.72;5100248;27;45339;-62
2023/11/29 01:32:51;;;;;;;;;43.25;37.00;;;;;7.83;73.59;100466.03;5101506;27;45716;-62
2023/11/29 01:35:17;;;;;;;;;46.50;39.25;;;;;7.80;73.68;100458.16;5100696;27;46097;-63
2023/11/29 01:37:42;;;;;;;;;46.25;39.50;;;;;7.84;73.58;100464.28;5101633;27;46069;-62
2023/11/29 01:40:11;;;;;;;;;45.50;38.00;;;;;7.85;73.86;100476.63;5101300;27;50935;-63
2023/11/29 01:42:37;;;;;;;;;46.25;37.25;;;;;7.84;73.54;100481.09;5101604;27;45246;-62
2023/11/29 01:45:03;;;;;;;;;34.00;32.75;;;;;7.84;73.89;100475.78;5099499;27;45377;-62
2023/11/29 01:47:33;;;;;;;;;42.25;38.75;;;;;7.74;73.82;100459.19;5101013;27;46854;-62
2023/11/29 01:50:02;;;;;;;;;42.50;39.00;;;;;7.62;73.81;100443.56;5101516;27;45313;-62
2023/11/29 01:52:30;;;;;;;;;39.50;36.25;;;;;7.71;74.04;100461.06;5101351;27;45243;-62
2023/11/29 01:54:55;;;;;;;;;33.50;30.00;;;;;7.67;74.09;100457.59;5100674;27;45541;-62
2023/11/29 01:57:21;;;;;;;;;43.25;39.00;;;;;7.67;74.35;100462.91;5101118;27;45404;-62
2023/11/29 01:59:47;;;;;;;;;41.50;37.00;;;;;7.68;74.22;100464.66;5101326;27;45469;-62
2023/11/29 02:02:12;;;;;;;;;39.00;37.00;;;;;7.63;74.17;100463.88;5100740;27;45467;-62
2023/11/29 02:04:38;;;;;;;;;51.00;38.25;;;;;7.60;74.50;100463.97;5100292;27;45502;-63
2023/11/29 02:07:03;;;;;;;;;39.50;34.50;;;;;7.52;74.56;100456.19;5099543;27;47257;-62
2023/11/29 02:09:29;;;;;;;;;35.50;31.50;;;;;7.49;74.70;100448.31;5101126;27;45297;-62
2023/11/29 02:11:55;;;;;;;;;37.25;32.75;;;;;7.59;74.71;100464.88;5101160;27;45472;-62
2023/11/29 02:14:20;;;;;;;;;35.50;31.25;;;;;7.63;74.92;100463.88;5100412;27;45322;-62
2023/11/29 02:16:45;;;;;;;;;28.50;23.50;;;;;7.49;74.93;100432.38;5096769;27;53909;-62
2023/11/29 02:19:11;;;;;;;;;29.75;26.25;;;;;7.68;74.74;100453.16;5090881;27;45441;-62
2023/11/29 02:21:36;;;;;;;;;26.50;23.50;;;;;7.54;75.14;100422.50;5100978;27;45799;-62
2023/11/29 02:24:09;;;;;;;;;28.25;26.50;;;;;7.74;75.21;100453.00;5100203;27;45302;-62
2023/11/29 02:26:35;;;;;;;;;29.25;27.50;;;;;7.74;75.02;100445.03;5099280;27;46891;-62
2023/11/29 02:29:01;;;;;;;;;31.50;26.75;;;;;7.76;75.09;100438.75;5100707;27;45378;-62
2023/11/29 02:31:26;;;;;;;;;29.50;28.25;;;;;7.81;74.86;100433.34;5100476;27;45320;-62
2023/11/29 02:33:52;;;;;;;;;30.75;27.25;;;;;7.77;75.06;100408.63;5098668;27;45432;-62
2023/11/29 02:36:17;;;;;;;;;28.00;27.50;;;;;7.91;74.88;100434.81;5091688;27;45414;-62
2023/11/29 02:38:42;;;;;;;;;27.00;27.00;;;;;7.90;75.00;100424.25;5100422;27;56646;-62
2023/11/29 02:41:07;;;;;;;;;29.00;25.25;;;;;7.98;75.24;100432.88;5100555;27;45411;-62
2023/11/29 02:43:33;;;;;;;;;20.25;18.25;;;;;7.89;75.08;100406.56;5099553;27;53373;-62
2023/11/29 02:45:58;;;;;;;;;29.50;25.00;;;;;8.02;75.04;100425.69;5098736;27;46975;-62
2023/11/29 02:48:23;;;;;;;;;27.50;26.25;;;;;8.03;74.47;100425.66;5100502;27;45979;-62
2023/11/29 02:50:49;;;;;;;;;20.00;20.00;;;;;7.95;74.72;100423.22;5100370;27;45310;-62
2023/11/29 02:53:14;;;;;;;;;25.75;21.25;;;;;7.89;75.01;100426.03;5099676;27;45404;-63
2023/11/29 02:55:40;;;;;;;;;25.00;21.50;;;;;7.79;75.27;100411.25;5097787;27;56937;-62
2023/11/29 02:58:05;;;;;;;;;22.50;18.50;;;;;7.95;75.40;100420.56;5099141;27;45443;-62
2023/11/29 03:00:30;;;;;;;;;27.75;21.25;;;;;7.95;75.20;100406.38;5100237;27;45562;-63
2023/11/29 03:02:57;;;;;;;;;21.00;19.50;;;;;8.02;75.62;100407.97;5100096;27;47734;-62
2023/11/29 03:05:23;;;;;;;;;28.75;21.50;;;;;7.99;75.27;100416.03;5098888;27;46332;-62
2023/11/29 03:07:48;;;;;;;;;22.50;20.50;;;;;7.93;75.62;100402.91;5100380;27;45345;-62
2023/11/29 03:10:14;;;;;;;;;16.75;14.75;;;;;7.93;75.50;100390.47;5100129;27;45327;-63
2023/11/29 03:12:39;;;;;;;;;25.50;21.25;;;;;7.94;75.78;100384.25;5100282;27;45322;-62
2023/11/29 03:15:05;;;;;;;;;24.25;20.25;;;;;7.93;75.66;100382.50;5098212;27;46268;-62
2023/11/29 03:17:30;;;;;;;;;23.50;21.50;;;;;7.97;75.86;100383.31;5090060;27;45300;-62
2023/11/29 03:19:55;;;;;;;;;14.00;13.25;;;;;8.07;75.58;100400.75;5096225;27;45358;-62
2023/11/29 03:22:21;;;;;;;;;25.50;18.50;;;;;8.05;75.52;100394.63;5100045;27;45267;-62
2023/11/29 03:24:46;;;;;;;;;25.00;20.75;;;;;8.09;75.60;100390.94;5098802;27;46568;-62
2023/11/29 03:27:12;;;;;;;;;24.75;23.25;;;;;7.99;75.78;100368.19;5100020;27;45527;-62
2023/11/29 03:29:37;;;;;;;;;20.00;17.50;;;;;8.04;75.86;100381.34;5099748;27;45330;-63
2023/11/29 03:32:03;;;;;;;;;21.50;18.50;;;;;8.04;76.06;100382.22;5099540;27;46652;-63
2023/11/29 03:34:28;;;;;;;;;16.75;16.00;;;;;8.04;75.95;100379.56;5098856;27;46059;-63
2023/11/29 03:36:53;;;;;;;;;28.25;24.50;;;;;8.01;76.12;100370.81;5098640;27;45450;-63
2023/11/29 03:39:19;;;;;;;;;18.25;18.00;;;;;8.04;76.03;100368.06;5099599;27;46008;-63
2023/11/29 03:41:44;;;;;;;;;20.75;18.00;;;;;8.03;76.04;100367.19;5099188;27;45365;-62
2023/11/29 03:44:09;;;;;;;;;20.50;17.00;;;;;8.11;76.23;100375.81;5098688;27;46012;-62
2023/11/29 03:46:35;;;;;;;;;22.75;20.00;;;;;8.04;75.62;100352.97;5099111;27;54524;-62
2023/11/29 03:49:00;;;;;;;;;18.75;18.75;;;;;8.12;75.99;100356.31;5098912;27;59752;-62
2023/11/29 03:51:25;;;;;;;;;21.50;18.50;;;;;8.10;75.88;100341.28;5099210;27;53168;-63
2023/11/29 03:53:50;;;;;;;;;18.50;15.75;;;;;8.22;76.01;100354.25;5096003;27;45498;-62
2023/11/29 03:56:16;;;;;;;;;19.00;18.75;;;;;8.27;76.00;100354.09;5099515;27;45386;-62
2023/11/29 03:58:41;;;;;;;;;21.25;19.50;;;;;8.36;75.57;100351.19;5099169;27;48775;-62
2023/11/29 04:01:06;;;;;;;;;19.00;17.00;;;;;8.38;75.66;100356.47;5098508;27;66551;-62
2023/11/29 04:03:32;;;;;;;;;28.00;20.50;;;;;8.35;75.31;100360.06;5098110;27;45389;-62
2023/11/29 04:05:57;;;;;;;;;17.75;17.75;;;;;8.22;75.47;100345.38;5099165;27;49597;-62
2023/11/29 04:08:22;;;;;;;;;16.75;16.50;;;;;8.26;75.65;100347.91;5096995;27;68691;-62
2023/11/29 04:10:47;;;;;;;;;23.67;17.67;;;;;8.31;75.53;100345.13;5098384;27;72741;-62
2023/11/29 04:13:13;;;;;;;;;24.00;19.25;;;;;8.35;75.86;100346.75;5098589;27;57254;-62
2023/11/29 04:15:38;;;;;;;;;17.50;15.00;;;;;8.30;75.87;100340.72;5098085;27;53364;-62
2023/11/29 04:18:03;;;;;;;;;19.75;18.75;;;;;8.29;76.10;100326.56;5083578;27;52597;-62
2023/11/29 04:20:29;;;;;;;;;25.25;23.00;;;;;8.29;76.33;100320.38;5097553;27;45326;-62
2023/11/29 04:22:54;;;;;;;;;19.33;19.00;;;;;8.32;76.41;100323.81;5090796;27;77867;-62
2023/11/29 04:25:19;;;;;;;;;19.50;19.50;;;;;8.36;76.71;100327.25;5097590;27;47507;-62
2023/11/29 04:27:45;;;;;;;;;18.75;17.00;;;;;8.29;76.54;100317.72;5097922;27;45387;-62
2023/11/29 04:30:10;;;;;;;;;20.50;20.25;;;;;8.37;76.57;100334.31;5097830;27;45484;-62
2023/11/29 04:32:36;;;;;;;;;21.75;20.25;;;;;8.30;76.74;100316.78;5094281;27;46981;-63
2023/11/29 04:35:01;;;;;;;;;20.00;20.00;;;;;8.33;76.69;100316.69;5098286;27;68318;-62
2023/11/29 04:37:28;;;;;;;;;23.50;19.50;;;;;8.34;76.53;100319.31;5098981;27;45268;-62
2023/11/29 04:39:54;;;;;;;;;19.75;18.50;;;;;8.42;76.81;100334.16;5099180;27;45468;-62
2023/11/29 04:42:19;;;;;;;;;19.00;18.00;;;;;8.37;76.86;100323.69;5096755;27;55209;-62
2023/11/29 04:44:45;;;;;;;;;19.50;17.25;;;;;8.31;76.60;100316.75;5099013;27;45451;-62
2023/11/29 04:47:10;;;;;;;;;18.25;17.50;;;;;8.39;76.71;100313.84;5098292;27;53695;-62
2023/11/29 04:49:35;;;;;;;;;13.50;13.50;;;;;8.42;76.98;100323.53;5101544;27;45377;-62
2023/11/29 04:52:00;;;;;;;;;17.75;15.50;;;;;8.34;77.20;100310.47;5101168;27;46070;-62
2023/11/29 04:54:26;;;;;;;;;18.75;17.25;;;;;8.30;77.11;100295.50;5101722;27;58591;-63
2023/11/29 04:56:51;;;;;;;;;15.25;15.25;;;;;8.40;77.04;100304.09;5102494;27;45367;-63
2023/11/29 04:59:16;;;;;;;;;18.25;15.25;;;;;8.49;76.80;100318.00;5102476;27;45593;-62
2023/11/29 05:01:42;;;;;;;;;15.75;15.00;;;;;8.43;77.24;100314.66;5101034;27;45373;-62
2023/11/29 05:04:07;;;;;;;;;19.00;16.75;;;;;8.49;77.51;100312.69;5102257;27;45338;-62
2023/11/29 05:06:33;;;;;;;;;9.75;9.00;;;;;8.35;77.40;100294.47;5102227;27;45515;-62
2023/11/29 05:08:58;;;;;;;;;14.50;14.00;;;;;8.35;77.25;100290.91;5102290;27;45586;-63
2023/11/29 05:11:24;;;;;;;;;14.00;13.25;;;;;8.42;77.15;100295.16;5101153;27;45450;-63
2023/11/29 05:13:50;;;;;;;;;20.75;18.75;;;;;8.46;76.89;100296.81;5102152;27;45317;-62
2023/11/29 05:16:15;;;;;;;;;21.50;21.50;;;;;8.47;77.38;100287.03;5100650;27;45438;-62
2023/11/29 05:18:40;;;;;;;;;20.25;17.00;;;;;8.46;77.02;100298.63;5087064;27;45308;-63
2023/11/29 05:21:06;;;;;;;;;13.00;11.75;;;;;8.31;77.39;100274.19;5100965;27;46819;-62
2023/11/29 05:23:31;;;;;;;;;18.50;15.75;;;;;8.35;77.19;100278.50;5101705;27;45345;-62
2023/11/29 05:25:57;;;;;;;;;12.50;12.50;;;;;8.42;77.27;100288.94;5101878;27;45328;-62
2023/11/29 05:28:24;;;;;;;;;19.50;16.50;;;;;8.41;76.89;100288.09;5100979;27;45542;-62
2023/11/29 05:30:50;;;;;;;;;17.00;14.50;;;;;8.42;77.13;100289.84;5101364;27;45455;-62
2023/11/29 05:33:16;;;;;;;;;14.00;13.50;;;;;8.41;77.53;100284.56;5100465;27;45714;-63
2023/11/29 05:35:43;;;;;;;;;14.75;13.00;;;;;8.29;77.17;100268.06;5101891;27;45381;-63
2023/11/29 05:38:08;;;;;;;;;15.75;13.75;;;;;8.43;77.04;100285.41;5101001;27;45582;-62
2023/11/29 05:40:34;;;;;;;;;13.50;11.50;;;;;8.42;77.07;100284.50;5101059;27;46346;-62
2023/11/29 05:42:59;;;;;;;;;13.50;13.50;;;;;8.39;76.69;100289.94;5087972;27;48175;-63
2023/11/29 05:45:24;;;;;;;;;13.00;10.75;;;;;8.37;76.90;100293.53;5101504;27;45306;-62
2023/11/29 05:47:50;;;;;;;;;14.00;11.75;;;;;8.32;76.69;100293.69;5101694;27;45256;-62
2023/11/29 05:50:15;;;;;;;;;10.75;10.75;;;;;8.17;76.65;100268.44;5099830;27;62303;-62
2023/11/29 05:52:40;;;;;;;;;18.50;13.50;;;;;8.19;77.02;100274.56;5101499;27;45311;-63
2023/11/29 05:55:06;;;;;;;;;12.00;10.00;;;;;8.20;76.99;100280.75;5101612;27;45438;-62
2023/11/29 05:57:31;;;;;;;;;8.50;8.50;;;;;8.19;77.13;100287.88;5101645;27;45285;-62
2023/11/29 05:59:58;;;;;;;;;13.25;12.00;;;;;8.14;76.82;100279.16;5098994;27;65488;-62
2023/11/29 06:02:23;;;;;;;;;10.25;10.25;;;;;8.20;76.74;100294.03;5088142;27;45645;-62
2023/11/29 06:04:49;;;;;;;;;11.50;10.25;;;;;8.13;77.15;100275.59;5101401;27;45729;-62
2023/11/29 06:07:15;;;;;;;;;16.50;13.25;;;;;8.22;76.86;100303.72;5096342;27;45384;-62
2023/11/29 06:09:40;;;;;;;;;11.25;11.00;;;;;8.03;76.99;100276.78;5100888;27;46316;-62
2023/11/29 06:12:07;;;;;;;;;16.50;14.00;;;;;8.16;77.15;100298.59;5101399;27;45522;-63
2023/11/29 06:14:32;;;;;;;;;14.50;13.25;;;;;8.07;77.16;100278.47;5099965;27;45326;-62
2023/11/29 06:16:57;;;;;;;;;9.00;8.50;;;;;8.14;76.92;100292.44;5096898;27;45531;-62
2023/11/29 06:19:23;;;;;;;;;14.75;14.25;;;;;8.09;77.04;100279.28;5092882;27;45410;-62
2023/11/29 06:21:48;;;;;;;;;17.25;15.75;;;;;8.13;77.48;100283.59;5098376;27;61871;-62
2023/11/29 06:24:13;;;;;;;;;17.50;13.50;;;;;8.26;77.07;100310.69;5098957;27;56484;-62
2023/11/29 06:26:39;;;;;;;;;13.25;13.00;;;;;8.27;77.24;100307.13;5100687;27;45335;-62
2023/11/29 06:29:04;;;;;;;;;15.75;12.25;;;;;8.25;77.04;100308.06;5094535;27;46168;-62
2023/11/29 06:31:31;;;;;;;;;14.25;11.75;;;;;8.21;77.27;100306.44;5100287;27;45369;-62
2023/11/29 06:33:57;;;;;;;;;11.00;10.50;;;;;8.25;77.25;100306.31;5100964;27;45341;-62
2023/11/29 06:36:22;;;;;;;;;18.75;13.75;;;;;8.17;76.84;100292.38;5100535;27;45516;-62
2023/11/29 06:38:47;;;;;;;;;17.25;15.75;;;;;8.21;76.92;100296.66;5099983;27;52297;-62
2023/11/29 06:41:13;;;;;;;;;17.00;14.00;;;;;8.22;77.32;100301.06;5099882;27;60862;-62
2023/11/29 06:43:39;;;;;;;;;17.75;15.00;;;;;8.24;77.28;100293.91;5099641;27;45831;-62
2023/11/29 06:46:05;;;;;;;;;15.75;13.50;;;;;8.12;77.14;100279.19;5100103;27;45413;-62
2023/11/29 06:48:31;;;;;;;;;16.50;14.25;;;;;8.30;77.18;100296.41;5099741;27;45431;-62
2023/11/29 06:51:00;;;;;;;;;18.75;16.25;;;;;8.24;76.80;100283.28;5100162;27;45373;-63
2023/11/29 06:53:25;;;;;;;;;14.75;12.25;;;;;8.28;77.24;100294.69;5100045;27;45322;-62
2023/11/29 06:55:51;;;;;;;;;18.25;16.25;;;;;8.13;77.00;100269.44;5100577;27;45600;-63
2023/11/29 06:58:16;;;;;;;;;16.75;14.00;;;;;8.22;76.81;100292.19;5097757;27;46349;-62
2023/11/29 07:00:43;;;;;;;;;17.75;14.25;;;;;8.21;77.00;100286.03;5098491;27;45411;-62
2023/11/29 07:03:09;;;;;;;;;15.25;15.00;;;;;8.15;76.89;100276.44;5097809;27;45454;-63
2023/11/29 07:05:34;;;;;;;;;15.25;13.75;;;;;8.22;77.10;100286.88;5093519;27;45528;-64
2023/11/29 07:08:00;;;;;;;;;16.00;16.00;;;;;7.87;76.82;100231.22;5091963;27;45573;-63
2023/11/29 07:10:26;;;;;;;;;19.00;18.00;;;;;8.14;76.95;100274.69;5094015;27;45547;-63
2023/11/29 07:12:55;;;;;;;;;19.75;17.25;;;;;8.05;77.04;100275.00;5097101;27;45378;-63
2023/11/29 07:15:20;;;;;;;;;21.00;17.75;;;;;8.05;77.19;100269.69;5080188;27;45540;-62
2023/11/29 07:17:46;;;;;;;;;22.50;17.25;;;;;7.95;77.25;100247.81;5091158;27;47057;-62
2023/11/29 07:20:11;;;;;;;;;15.75;13.75;;;;;8.06;77.32;100268.75;5099668;27;45285;-62
2023/11/29 07:22:37;;;;;;;;;17.00;14.00;;;;;8.07;77.26;100265.19;5096978;27;45601;-62
2023/11/29 07:25:02;;;;;;;;;20.50;18.00;;;;;8.08;77.11;100268.69;5093967;27;45711;-63
2023/11/29 07:27:28;;;;;;;;;19.25;19.25;;;;;8.08;77.62;100253.59;5099001;27;46190;-62
2023/11/29 07:29:53;;;;;;;;;16.50;15.50;;;;;8.14;77.27;100261.41;5096836;27;45660;-62
2023/11/29 07:32:22;;;;;;;;;22.00;19.50;;;;;8.24;77.03;100280.63;5096568;27;45357;-62
2023/11/29 07:34:50;;;;;;;;;25.25;23.00;;;;;8.26;77.00;100275.25;5097589;27;45447;-62
2023/11/29 07:37:19;;;;;;;;;18.50;18.25;;;;;8.26;77.13;100286.75;5093841;27;46232;-63
2023/11/29 07:39:44;;;;;;;;;21.75;19.25;;;;;8.22;77.21;100269.16;5096139;27;45506;-63
2023/11/29 07:42:09;;;;;;;;;19.25;19.25;;;;;8.18;76.94;100262.19;5093430;27;45999;-63
2023/11/29 07:44:35;;;;;;;;;26.00;23.75;;;;;8.23;76.87;100270.03;5092133;27;46144;-63
2023/11/29 07:47:00;;;;;;;;;24.00;22.25;;;;;8.24;77.26;100264.66;5092596;27;45536;-63
2023/11/29 07:49:25;;;;;;;;;20.00;18.75;;;;;8.35;76.82;100290.91;5091949;27;45964;-63
2023/11/29 07:51:51;;;;;;;;;22.50;20.00;;;;;8.34;76.75;100286.53;5093634;27;61698;-64
2023/11/29 07:54:16;;;;;;;;;28.25;22.00;;;;;8.35;77.11;100290.91;5090676;27;45757;-62
2023/11/29 07:56:42;;;;;;;;;27.00;22.25;;;;;8.18;76.46;100267.50;5095509;27;54128;-62
2023/11/29 07:59:09;;;;;;;;;25.25;22.50;;;;;8.14;76.75;100273.84;5097839;27;45859;-62
2023/11/29 08:01:34;;;;;;;;;25.25;24.00;;;;;8.21;76.95;100295.78;5094745;27;45348;-62
2023/11/29 08:04:00;;;;;;;;;27.75;24.50;;;;;8.21;77.16;100290.47;5098255;27;45291;-62
2023/11/29 08:06:25;;;;;;;;;24.75;22.00;;;;;8.22;77.21;100294.88;5097646;27;46340;-62
2023/11/29 08:08:50;;;;;;;;;24.25;22.50;;;;;8.19;77.31;100295.84;5094969;27;45442;-62
2023/11/29 08:11:16;;;;;;;;;26.50;23.00;;;;;8.14;77.26;100292.44;5093590;27;45429;-62
2023/11/29 08:13:41;;;;;;;;;26.50;24.25;;;;;8.05;77.52;100285.63;5096738;27;56086;-62
2023/11/29 08:16:06;;;;;;;;;20.25;18.00;;;;;8.00;77.98;100270.72;5096404;27;45297;-62
2023/11/29 08:18:32;;;;;;;;;32.00;22.75;;;;;8.07;77.47;100288.22;5094200;27;46695;-62
2023/11/29 08:20:58;;;;;;;;;19.25;18.25;;;;;7.90;77.64;100252.38;5095082;27;45810;-62
2023/11/29 08:23:23;;;;;;;;;25.25;22.25;;;;;8.05;77.62;100285.63;5094663;27;45468;-62
2023/11/29 08:25:48;;;;;;;;;26.50;22.50;;;;;8.04;77.71;100280.34;5099597;27;45397;-63
2023/11/29 08:28:14;;;;;;;;;32.00;26.25;;;;;7.97;77.69;100280.53;5089739;27;52256;-62
2023/11/29 08:30:39;;;;;;;;;26.00;22.50;;;;;7.90;77.36;100262.13;5099811;27;45463;-62
2023/11/29 08:33:04;;;;;;;;;25.00;22.75;;;;;7.91;77.91;100269.19;5099691;27;66877;-62
2023/11/29 08:35:30;;;;;;;;;26.00;26.00;;;;;7.90;78.22;100272.75;5100428;27;46251;-62
2023/11/29 08:37:55;;;;;;;;;5.50;3.75;;;;;7.88;78.36;100269.28;5099894;27;63657;-62
2023/11/29 08:40:20;;;;;;;;;21.25;18.50;;;;;7.81;78.40;100259.75;5101021;27;45447;-62
2023/11/29 08:42:46;;;;;;;;;27.25;23.75;;;;;7.83;78.48;100266.75;5099117;27;47822;-62
2023/11/29 08:45:11;;;;;;;;;25.75;22.25;;;;;7.91;78.55;100280.69;5097442;27;46121;-62
2023/11/29 08:47:37;;;;;;;;;25.00;22.50;;;;;7.92;78.76;100270.94;5100614;27;45461;-61
2023/11/29 08:50:03;;;;;;;;;23.25;22.00;;;;;7.79;78.66;100243.84;5100036;27;45412;-68
2023/11/29 08:52:28;;;;;;;;;25.75;22.25;;;;;7.95;78.75;100270.84;5099307;27;45610;-66
2023/11/29 08:54:53;;;;;;;;;26.00;24.50;;;;;7.93;78.93;100262.91;5098174;27;46544;-66
2023/11/29 08:57:23;;;;;;;;;23.50;22.25;;;;;7.84;78.74;100254.34;5100443;27;45365;-66
2023/11/29 08:59:50;;;;;;;;;24.50;22.00;;;;;7.68;78.66;100217.56;5101388;27;45339;-66
2023/11/29 09:02:17;;;;;;;;;23.00;23.00;;;;;7.89;78.90;100247.97;5100799;27;45538;-66
2023/11/29 09:04:42;;;;;;;;;25.25;22.25;;;;;7.89;79.14;100249.78;5099310;27;46958;-66
2023/11/29 09:07:07;;;;;;;;;21.00;19.50;;;;;8.00;78.78;100266.25;5099274;27;60996;-66
2023/11/29 09:09:33;;;;;;;;;25.00;23.25;;;;;7.98;78.86;100257.47;5100782;27;45420;-66
2023/11/29 09:11:58;;;;;;;;;21.50;19.00;;;;;8.05;78.92;100263.47;5100442;27;45556;-66
2023/11/29 09:14:23;;;;;;;;;20.25;17.50;;;;;7.98;79.52;100255.69;5098155;27;45977;-66
2023/11/29 09:16:49;;;;;;;;;18.50;16.75;;;;;8.04;78.96;100251.13;5095689;27;45420;-66
2023/11/29 09:19:14;;;;;;;;;23.00;22.75;;;;;8.03;79.35;100252.00;5099475;27;45423;-66
2023/11/29 09:21:39;;;;;;;;;23.25;22.25;;;;;8.16;79.48;100269.34;5099907;27;45526;-65
2023/11/29 09:24:05;;;;;;;;;21.25;18.75;;;;;8.19;78.83;100257.75;5097544;27;48632;-66
2023/11/29 09:26:32;;;;;;;;;20.50;19.50;;;;;8.21;79.04;100271.88;5093042;27;45426;-65
2023/11/29 09:28:57;;;;;;;;;23.00;22.50;;;;;8.04;78.95;100236.03;5099909;27;45477;-66
2023/11/29 09:31:23;;;;;;;;;19.25;16.75;;;;;8.06;78.93;100236.84;5099204;27;61661;-67
2023/11/29 09:33:49;;;;;;;;;26.50;22.50;;;;;8.28;79.47;100265.44;5098691;27;45572;-67
2023/11/29 09:36:15;;;;;;;;;23.50;19.75;;;;;8.26;79.23;100253.97;5099295;27;45239;-67
2023/11/29 09:38:41;;;;;;;;;24.50;22.25;;;;;8.34;79.35;100251.97;5099310;27;45586;-67
2023/11/29 09:41:06;;;;;;;;;17.00;17.00;;;;;8.39;79.33;100260.66;5098865;27;45538;-68
2023/11/29 09:43:34;;;;;;;;;19.25;17.75;;;;;8.44;79.06;100261.44;5096295;27;47619;-65
2023/11/29 09:46:00;;;;;;;;;21.00;19.00;;;;;8.35;79.21;100235.06;5098399;27;45433;-66
2023/11/29 09:48:26;;;;;;;;;19.25;19.00;;;;;8.45;79.37;100252.53;5098527;27;45597;-67
2023/11/29 09:50:51;;;;;;;;;21.50;14.50;;;;;8.57;79.45;100261.03;5099792;27;45357;-67
2023/11/29 09:53:17;;;;;;;;;21.75;19.00;;;;;8.49;78.75;100246.19;5099937;27;45577;-66
2023/11/29 09:55:43;;;;;;;;;22.50;22.00;;;;;8.43;79.08;100237.53;5097292;27;45397;-67
2023/11/29 09:58:10;;;;;;;;;26.50;18.00;;;;;8.55;78.89;100250.44;5097902;27;45378;-67
2023/11/29 10:00:35;;;;;;;;;23.50;21.00;;;;;8.50;78.81;100239.97;5096747;27;45629;-67
2023/11/29 10:03:11;;;;;;;;;23.75;21.00;;;;;8.57;78.88;100237.97;5092498;27;46437;-66
2023/11/29 10:05:36;;;;;;;;;19.75;17.00;;;;;8.33;79.26;100194.38;5092879;27;45384;-66
2023/11/29 10:08:02;;;;;;;;;17.50;15.25;;;;;8.66;79.41;100236.81;5099028;27;45465;-67
2023/11/29 10:10:33;;;;;;;;;14.50;14.50;;;;;8.69;79.07;100237.56;5095532;27;45891;-67
2023/11/29 10:12:58;;;;;;;;;19.25;14.75;;;;;8.60;78.65;100203.25;5092083;27;47152;-67
2023/11/29 10:15:24;;;;;;;;;19.00;14.75;;;;;8.46;78.65;100182.44;5097660;27;45343;-67
2023/11/29 10:17:50;;;;;;;;;18.00;17.00;;;;;8.69;78.44;100216.28;5097143;27;46022;-67
2023/11/29 10:20:15;;;;;;;;;17.50;17.00;;;;;8.84;78.98;100238.84;5099080;27;45552;-67
2023/11/29 10:22:41;;;;;;;;;18.50;14.25;;;;;8.91;79.24;100228.88;5098272;27;45564;-67
2023/11/29 10:25:21;;;;;;;;;19.25;18.00;;;;;8.95;79.03;100235.81;5098446;27;45442;-67
2023/11/29 10:27:47;;;;;;;;;4.00;4.00;;;;;8.98;78.78;100233.06;5098126;27;45430;-67
2023/11/29 10:30:13;;;;;;;;;20.75;15.00;;;;;8.95;78.48;100216.31;5100389;27;45722;-67
2023/11/29 10:32:40;;;;;;;;;19.75;18.75;;;;;8.98;78.48;100206.44;5097295;27;45398;-67
2023/11/29 10:35:10;;;;;;;;;16.50;13.75;;;;;9.08;78.81;100209.66;5097469;27;45448;-67
2023/11/29 10:37:42;;;;;;;;;23.00;18.75;;;;;9.15;78.42;100189.88;5097154;27;45683;-67
2023/11/29 10:40:10;;;;;;;;;22.25;17.75;;;;;9.20;78.33;100193.22;5098724;27;45516;-68
2023/11/29 10:42:39;;;;;;;;;21.50;19.00;;;;;9.27;78.25;100184.13;5098860;27;46306;-67
2023/11/29 10:45:07;;;;;;;;;20.50;16.00;;;;;9.34;78.02;100186.53;5097798;27;45537;-67
2023/11/29 10:47:39;;;;;;;;;20.75;17.25;;;;;9.35;78.49;100178.50;5097769;27;45456;-67
2023/11/29 10:50:10;;;;;;;;;19.75;16.25;;;;;9.32;77.99;100157.34;5094053;27;45407;-67
2023/11/29 10:52:36;;;;;;;;;18.50;16.75;;;;;9.37;77.90;100157.13;5095815;27;46641;-67
2023/11/29 10:55:02;;;;;;;;;18.25;18.00;;;;;9.47;77.56;100169.19;5097719;27;45479;-67
2023/11/29 10:57:37;;;;;;;;;19.00;18.75;;;;;9.45;77.79;100165.72;5097114;27;45658;-67
2023/11/29 11:00:07;;;;;;;;;18.50;16.25;;;;;9.42;77.25;100152.50;5096289;27;45546;-64
2023/11/29 11:02:32;;;;;;;;;19.00;18.50;;;;;9.50;77.54;100157.56;5097613;27;46158;-68
2023/11/29 11:05:05;;;;;;;;;21.75;20.50;;;;;9.52;77.38;100158.38;5098336;27;45520;-67
2023/11/29 11:07:41;;;;;;;;;24.50;19.75;;;;;9.70;77.74;100178.13;5096301;27;45510;-67
2023/11/29 11:10:11;;;;;;;;;13.75;13.00;;;;;9.74;77.13;100164.63;5091446;27;45760;-67